createdAt,value
2023-04-16T00:01:28.857Z,6.68
2023-04-16T00:03:57.449Z,6.20
2023-04-16T00:06:26.129Z,6.15
2023-04-16T00:08:54.981Z,6.03
2023-04-16T00:11:23.946Z,5.68
2023-04-16T00:13:52.410Z,6.57
2023-04-16T00:16:22.363Z,6.70
2023-04-16T00:18:50.938Z,5.93
2023-04-16T00:21:19.395Z,5.75
2023-04-16T00:23:47.975Z,5.50
2023-04-16T00:26:16.983Z,6.43
2023-04-16T00:28:47.019Z,6.65
2023-04-16T00:31:15.511Z,7.07
2023-04-16T00:33:45.556Z,6.03
2023-04-16T00:36:14.216Z,6.35
2023-04-16T00:38:42.876Z,5.25
2023-04-16T00:41:11.648Z,6.32
2023-04-16T00:43:40.248Z,5.45
2023-04-16T00:46:10.276Z,6.57
2023-04-16T00:48:43.290Z,7.57
2023-04-16T00:51:14.522Z,6.43
2023-04-16T00:53:43.989Z,6.63
2023-04-16T00:56:13.770Z,8.77
2023-04-16T00:58:42.810Z,9.48
2023-04-16T01:01:11.474Z,9.63
2023-04-16T01:03:42.211Z,10.98
2023-04-16T01:06:11.206Z,11.15
2023-04-16T01:08:41.657Z,11.82
2023-04-16T01:11:11.541Z,11.70
2023-04-16T01:13:40.140Z,9.43
2023-04-16T01:16:09.559Z,9.15
2023-04-16T01:18:39.089Z,9.85
2023-04-16T01:21:09.110Z,10.20
2023-04-16T01:23:37.710Z,7.45
2023-04-16T01:26:06.865Z,8.13
2023-04-16T01:28:35.531Z,7.70
2023-04-16T01:31:04.144Z,7.53
2023-04-16T01:34:01.745Z,7.18
2023-04-16T01:36:31.815Z,7.65
2023-04-16T01:39:00.349Z,7.43
2023-04-16T01:41:29.105Z,7.15
2023-04-16T01:43:58.171Z,6.55
2023-04-16T01:46:30.091Z,6.90
2023-04-16T01:48:58.813Z,7.00
2023-04-16T01:51:28.224Z,8.15
2023-04-16T01:53:58.551Z,8.50
2023-04-16T01:56:27.240Z,7.25
2023-04-16T01:58:56.297Z,6.80
2023-04-16T02:01:27.013Z,6.07
2023-04-16T02:03:57.019Z,6.65
2023-04-16T02:06:25.998Z,6.90
2023-04-16T02:08:54.661Z,7.38
2023-04-16T02:11:25.000Z,8.05
2023-04-16T02:13:53.579Z,7.38
2023-04-16T02:16:22.746Z,6.25
2023-04-16T02:18:58.137Z,6.80
2023-04-16T02:21:29.017Z,6.03
2023-04-16T02:23:57.666Z,6.38
2023-04-16T02:26:31.091Z,5.75
2023-04-16T02:29:05.958Z,6.47
2023-04-16T02:31:41.759Z,6.00
2023-04-16T02:34:11.882Z,5.90
2023-04-16T02:36:40.440Z,5.80
2023-04-16T02:39:09.166Z,5.57
2023-04-16T02:41:39.990Z,5.40
2023-04-16T02:44:08.752Z,5.60
2023-04-16T02:46:37.286Z,6.03
2023-04-16T02:49:05.856Z,5.05
2023-04-16T02:51:34.478Z,5.40
2023-04-16T02:54:03.476Z,5.32
2023-04-16T02:56:33.206Z,5.65
2023-04-16T02:59:03.816Z,5.55
2023-04-16T03:01:32.642Z,6.63
2023-04-16T03:04:01.261Z,7.55
2023-04-16T03:06:30.299Z,7.07
2023-04-16T03:08:59.095Z,6.35
2023-04-16T03:11:27.743Z,5.95
2023-04-16T03:13:56.777Z,7.32
2023-04-16T03:16:27.264Z,6.50
2023-04-16T03:18:55.807Z,5.78
2023-04-16T03:21:24.301Z,6.28
2023-04-16T03:23:53.446Z,6.28
2023-04-16T03:26:23.707Z,6.50
2023-04-16T03:28:52.805Z,6.20
2023-04-16T03:31:21.906Z,6.15
2023-04-16T03:33:52.071Z,5.53
2023-04-16T03:36:21.092Z,5.03
2023-04-16T03:38:49.786Z,5.72
2023-04-16T03:41:19.170Z,5.63
2023-04-16T03:43:47.695Z,5.47
2023-04-16T03:46:17.133Z,5.43
2023-04-16T03:48:46.557Z,5.72
2023-04-16T03:51:16.812Z,5.45
2023-04-16T03:53:45.394Z,5.55
2023-04-16T03:56:15.516Z,6.88
2023-04-16T03:58:44.004Z,5.30
2023-04-16T04:01:12.568Z,4.78
2023-04-16T04:03:41.392Z,4.75
2023-04-16T04:06:10.340Z,5.18
2023-04-16T04:08:40.326Z,4.70
2023-04-16T04:11:09.224Z,5.00
2023-04-16T04:13:40.125Z,4.68
2023-04-16T04:16:09.271Z,4.93
2023-04-16T04:18:38.070Z,5.45
2023-04-16T04:21:08.118Z,5.70
2023-04-16T04:23:36.786Z,5.05
2023-04-16T04:26:07.795Z,4.97
2023-04-16T04:28:37.138Z,4.40
2023-04-16T04:31:06.857Z,4.68
2023-04-16T04:33:35.372Z,4.68
2023-04-16T04:36:04.137Z,21.67
2023-04-16T04:38:34.652Z,5.30
2023-04-16T04:41:03.324Z,5.15
2023-04-16T04:43:37.225Z,5.70
2023-04-16T04:46:06.154Z,4.90
2023-04-16T04:48:34.769Z,5.00
2023-04-16T04:51:05.303Z,4.97
2023-04-16T04:53:34.295Z,6.03
2023-04-16T04:56:12.268Z,4.68
2023-04-16T04:58:43.485Z,4.82
2023-04-16T05:01:12.359Z,4.88
2023-04-16T05:03:40.977Z,5.35
2023-04-16T05:06:09.528Z,6.07
2023-04-16T05:08:38.016Z,4.95
2023-04-16T05:11:06.718Z,4.78
2023-04-16T05:13:35.238Z,4.25
2023-04-16T05:16:05.455Z,5.22
2023-04-16T05:18:35.073Z,4.63
2023-04-16T05:21:04.027Z,4.03
2023-04-16T05:23:32.535Z,4.22
2023-04-16T05:26:01.004Z,4.97
2023-04-16T05:28:29.468Z,4.00
2023-04-16T05:30:58.109Z,4.78
2023-04-16T05:33:27.938Z,3.72
2023-04-16T05:35:56.413Z,5.07
2023-04-16T05:38:24.917Z,4.50
2023-04-16T05:40:53.479Z,4.32
2023-04-16T05:43:21.922Z,4.47
2023-04-16T05:45:50.533Z,4.93
2023-04-16T05:48:22.013Z,5.65
2023-04-16T05:50:52.178Z,3.92
2023-04-16T05:53:20.659Z,4.03
2023-04-16T05:55:49.084Z,4.15
2023-04-16T05:58:17.638Z,3.88
2023-04-16T06:00:46.520Z,3.90
2023-04-16T06:03:15.232Z,4.20
2023-04-16T06:05:43.847Z,4.20
2023-04-16T06:08:13.907Z,4.35
2023-04-16T06:10:42.950Z,4.53
2023-04-16T06:13:11.416Z,4.40
2023-04-16T06:15:39.943Z,5.78
2023-04-16T06:18:08.566Z,4.35
2023-04-16T06:20:37.142Z,4.05
2023-04-16T06:23:05.706Z,4.50
2023-04-16T06:25:35.642Z,4.50
2023-04-16T06:28:04.174Z,4.10
2023-04-16T06:30:32.702Z,4.43
2023-04-16T06:33:01.448Z,4.40
2023-04-16T06:35:30.024Z,4.30
2023-04-16T06:37:58.530Z,4.55
2023-04-16T06:40:27.142Z,4.30
2023-04-16T06:42:57.611Z,4.03
2023-04-16T06:45:26.105Z,4.30
2023-04-16T06:47:54.717Z,3.97
2023-04-16T06:50:23.511Z,4.32
2023-04-16T06:52:52.264Z,4.28
2023-04-16T06:55:20.897Z,4.35
2023-04-16T06:57:49.412Z,4.60
2023-04-16T07:00:19.975Z,5.38
2023-04-16T07:02:48.796Z,4.60
2023-04-16T07:05:17.421Z,4.32
2023-04-16T07:07:45.968Z,5.10
2023-04-16T07:10:14.814Z,4.85
2023-04-16T07:12:43.392Z,4.70
2023-04-16T07:15:13.733Z,4.90
2023-04-16T07:17:43.689Z,3.78
2023-04-16T07:20:12.790Z,3.92
2023-04-16T07:22:41.421Z,3.72
2023-04-16T07:25:10.702Z,4.32
2023-04-16T07:27:39.210Z,4.80
2023-04-16T07:30:09.404Z,3.60
2023-04-16T07:32:38.063Z,3.28
2023-04-16T07:35:08.901Z,3.92
2023-04-16T07:37:37.384Z,4.00
2023-04-16T07:40:06.584Z,3.47
2023-04-16T07:42:35.144Z,3.25
2023-04-16T07:45:03.623Z,4.18
2023-04-16T07:47:33.497Z,3.97
2023-04-16T07:50:02.010Z,3.42
2023-04-16T07:52:34.348Z,4.15
2023-04-16T07:55:02.940Z,3.58
2023-04-16T07:57:31.780Z,3.53
2023-04-16T08:00:02.152Z,3.80
2023-04-16T08:02:42.622Z,3.45
2023-04-16T08:05:12.663Z,4.38
2023-04-16T08:07:42.572Z,3.72
2023-04-16T08:10:11.327Z,2.97
2023-04-16T08:12:39.880Z,3.85
2023-04-16T08:15:09.520Z,3.25
2023-04-16T08:17:38.035Z,3.03
2023-04-16T08:20:08.225Z,3.72
2023-04-16T08:22:36.842Z,3.33
2023-04-16T08:25:07.717Z,3.53
2023-04-16T08:27:36.179Z,3.30
2023-04-16T08:30:05.018Z,3.25
2023-04-16T08:32:35.369Z,3.25
2023-04-16T08:35:03.947Z,3.20
2023-04-16T08:37:33.072Z,3.25
2023-04-16T08:40:02.352Z,4.57
2023-04-16T08:42:42.290Z,3.78
2023-04-16T08:45:15.606Z,3.38
2023-04-16T08:47:48.170Z,3.15
2023-04-16T08:50:17.731Z,3.53
2023-04-16T08:52:51.937Z,3.25
2023-04-16T08:55:24.139Z,2.97
2023-04-16T08:57:58.944Z,4.05
2023-04-16T09:00:29.753Z,3.40
2023-04-16T09:02:58.438Z,3.90
2023-04-16T09:05:29.010Z,3.28
2023-04-16T09:07:57.543Z,3.08
2023-04-16T09:10:27.597Z,2.97
2023-04-16T09:12:58.743Z,3.30
2023-04-16T09:15:27.596Z,3.15
2023-04-16T09:17:57.014Z,3.70
2023-04-16T09:20:25.770Z,2.97
2023-04-16T09:22:54.250Z,3.35
2023-04-16T09:25:23.803Z,4.13
2023-04-16T09:27:52.418Z,4.30
2023-04-16T09:30:23.993Z,4.65
2023-04-16T09:32:53.085Z,3.30
2023-04-16T09:35:22.206Z,3.22
2023-04-16T09:37:57.898Z,3.42
2023-04-16T09:40:30.593Z,3.63
2023-04-16T09:43:00.973Z,4.00
2023-04-16T09:45:34.199Z,3.65
2023-04-16T09:48:06.674Z,3.90
2023-04-16T09:50:35.216Z,5.00
2023-04-16T09:53:04.865Z,3.97
2023-04-16T09:55:34.188Z,3.67
2023-04-16T09:58:03.402Z,4.30
2023-04-16T10:00:33.717Z,5.22
2023-04-16T10:03:07.228Z,4.85
2023-04-16T10:05:36.705Z,3.25
2023-04-16T10:08:12.238Z,5.43
2023-04-16T10:10:41.310Z,4.15
2023-04-16T10:13:10.217Z,4.15
2023-04-16T10:15:41.100Z,3.53
2023-04-16T10:18:09.685Z,3.38
2023-04-16T10:20:38.938Z,3.72
2023-04-16T10:23:08.148Z,3.60
2023-04-16T10:25:37.551Z,3.47
2023-04-16T10:28:07.001Z,3.42
2023-04-16T10:30:36.063Z,3.42
2023-04-16T10:33:07.187Z,3.90
2023-04-16T10:35:41.570Z,3.30
2023-04-16T10:38:29.531Z,3.70
2023-04-16T10:41:03.149Z,3.60
2023-04-16T10:43:32.965Z,3.42
2023-04-16T10:46:19.387Z,4.03
2023-04-16T10:48:50.973Z,3.85
2023-04-16T10:51:31.574Z,4.07
2023-04-16T10:54:05.886Z,4.05
2023-04-16T10:56:35.463Z,3.92
2023-04-16T10:59:06.555Z,5.20
2023-04-16T11:01:37.006Z,4.75
2023-04-16T11:04:34.683Z,3.92
2023-04-16T11:07:05.065Z,3.97
2023-04-16T11:09:48.158Z,4.20
2023-04-16T11:12:18.832Z,5.38
2023-04-16T11:14:50.226Z,5.53
2023-04-16T11:17:19.347Z,5.18
2023-04-16T11:19:49.732Z,4.47
2023-04-16T11:22:19.098Z,5.47
2023-04-16T11:24:48.233Z,5.30
2023-04-16T11:27:16.813Z,4.60
2023-04-16T11:29:47.446Z,4.20
2023-04-16T11:32:23.054Z,3.70
2023-04-16T11:34:53.072Z,3.38
2023-04-16T11:37:23.172Z,3.78
2023-04-16T11:39:53.044Z,4.47
2023-04-16T11:42:24.112Z,4.30
2023-04-16T11:44:56.619Z,4.18
2023-04-16T11:47:26.092Z,4.07
2023-04-16T11:49:57.279Z,5.63
2023-04-16T11:52:30.920Z,5.30
2023-04-16T11:55:00.892Z,5.70
2023-04-16T11:57:32.647Z,5.07
2023-04-16T12:00:03.683Z,4.75
2023-04-16T12:02:53.166Z,4.72
2023-04-16T12:05:31.490Z,4.45
2023-04-16T12:08:01.107Z,4.25
2023-04-16T12:10:30.419Z,3.88
2023-04-16T12:13:11.909Z,4.30
2023-04-16T12:15:50.896Z,4.20
2023-04-16T12:18:20.560Z,3.92
2023-04-16T12:20:51.585Z,4.53
2023-04-16T12:23:27.976Z,4.00
2023-04-16T12:25:59.843Z,4.18
2023-04-16T12:28:30.058Z,4.32
2023-04-16T12:30:58.673Z,3.70
2023-04-16T12:33:27.196Z,4.20
2023-04-16T12:35:57.112Z,3.50
2023-04-16T12:38:26.405Z,2.95
2023-04-16T12:40:57.431Z,3.35
2023-04-16T12:43:26.507Z,3.42
2023-04-16T12:45:55.230Z,3.50
2023-04-16T12:48:24.070Z,3.60
2023-04-16T12:50:56.343Z,3.95
2023-04-16T12:53:24.859Z,3.88
2023-04-16T12:55:53.382Z,3.50
2023-04-16T12:58:21.968Z,3.45
2023-04-16T13:00:50.868Z,3.50
2023-04-16T13:03:21.193Z,3.17
2023-04-16T13:05:50.067Z,3.92
2023-04-16T13:08:20.279Z,4.07
2023-04-16T13:10:48.748Z,4.28
2023-04-16T13:13:17.320Z,4.47
2023-04-16T13:15:45.811Z,4.45
2023-04-16T13:18:14.376Z,4.47
2023-04-16T13:20:42.955Z,4.05
2023-04-16T13:23:11.436Z,4.18
2023-04-16T13:25:41.403Z,4.05
2023-04-16T13:28:09.942Z,3.90
2023-04-16T13:30:38.764Z,3.80
2023-04-16T13:33:07.364Z,4.30
2023-04-16T13:35:36.041Z,3.50
2023-04-16T13:38:05.618Z,3.58
2023-04-16T13:40:34.106Z,3.75
2023-04-16T13:43:07.773Z,3.17
2023-04-16T13:45:36.481Z,3.60
2023-04-16T13:48:05.647Z,8.35
2023-04-16T13:50:35.253Z,4.72
2023-04-16T13:53:03.783Z,3.85
2023-04-16T13:55:32.971Z,4.35
2023-04-16T13:58:03.288Z,4.40
2023-04-16T14:00:31.880Z,4.30
2023-04-16T14:03:00.653Z,4.82
2023-04-16T14:05:29.376Z,3.72
2023-04-16T14:07:57.849Z,3.97
2023-04-16T14:10:26.363Z,3.30
2023-04-16T14:12:54.952Z,4.10
2023-04-16T14:15:27.651Z,3.35
2023-04-16T14:17:56.207Z,3.53
2023-04-16T14:20:24.938Z,3.63
2023-04-16T14:22:53.641Z,3.15
2023-04-16T14:25:22.191Z,2.90
2023-04-16T14:27:51.435Z,4.45
2023-04-16T14:30:19.950Z,4.05
2023-04-16T14:32:49.955Z,3.10
2023-04-16T14:35:19.779Z,3.10
2023-04-16T14:37:48.479Z,3.03
2023-04-16T14:40:19.311Z,2.53
2023-04-16T14:42:49.047Z,3.22
2023-04-16T14:45:17.632Z,3.38
2023-04-16T14:47:48.011Z,3.03
2023-04-16T14:50:18.372Z,2.80
2023-04-16T14:52:46.973Z,3.00
2023-04-16T14:55:15.613Z,2.92
2023-04-16T14:57:45.220Z,3.50
2023-04-16T15:00:17.293Z,3.05
2023-04-16T15:02:46.379Z,2.67
2023-04-16T15:05:15.215Z,3.50
2023-04-16T15:07:45.123Z,3.10
2023-04-16T15:10:14.469Z,3.15
2023-04-16T15:12:42.905Z,3.40
2023-04-16T15:15:12.099Z,3.92
2023-04-16T15:17:40.826Z,2.97
2023-04-16T15:20:10.791Z,3.10
2023-04-16T15:22:39.780Z,3.65
2023-04-16T15:25:10.679Z,3.40
2023-04-16T15:27:39.574Z,3.22
2023-04-16T15:30:11.533Z,3.72
2023-04-16T15:32:40.425Z,5.53
2023-04-16T15:35:11.307Z,3.47
2023-04-16T15:37:40.507Z,2.70
2023-04-16T15:40:11.163Z,2.88
2023-04-16T15:42:40.493Z,3.15
2023-04-16T15:45:09.555Z,3.00
2023-04-16T15:47:40.178Z,3.45
2023-04-16T15:50:10.290Z,6.30
2023-04-16T15:52:39.574Z,2.95
2023-04-16T15:55:08.417Z,3.00
2023-04-16T15:57:38.486Z,2.85
2023-04-16T16:00:13.461Z,3.22
2023-04-16T16:02:42.992Z,2.72
2023-04-16T16:05:12.943Z,3.35
2023-04-16T16:07:41.665Z,4.10
2023-04-16T16:10:11.810Z,3.28
2023-04-16T16:12:42.421Z,3.60
2023-04-16T16:15:12.093Z,3.75
2023-04-16T16:17:41.004Z,3.95
2023-04-16T16:20:10.924Z,4.40
2023-04-16T16:22:41.179Z,3.90
2023-04-16T16:25:10.482Z,4.75
2023-04-16T16:27:40.737Z,3.42
2023-04-16T16:30:12.337Z,5.30
2023-04-16T16:32:43.106Z,4.00
2023-04-16T16:35:12.534Z,3.20
2023-04-16T16:37:41.450Z,3.50
2023-04-16T16:40:10.688Z,3.40
2023-04-16T16:42:39.324Z,3.55
2023-04-16T16:45:08.839Z,3.30
2023-04-16T16:47:38.760Z,3.63
2023-04-16T16:50:08.820Z,3.72
2023-04-16T16:52:37.247Z,5.90
2023-04-16T16:55:08.802Z,7.40
2023-04-16T16:57:37.295Z,7.50
2023-04-16T17:00:11.282Z,6.55
2023-04-16T17:02:41.879Z,6.82
2023-04-16T17:05:11.491Z,7.70
2023-04-16T17:07:40.523Z,6.88
2023-04-16T17:10:11.286Z,6.75
2023-04-16T17:12:39.905Z,6.70
2023-04-16T17:15:09.878Z,6.00
2023-04-16T17:17:40.817Z,6.55
2023-04-16T17:20:10.889Z,6.05
2023-04-16T17:22:40.853Z,6.45
2023-04-16T17:25:10.041Z,6.57
2023-04-16T17:27:41.388Z,6.07
2023-04-16T17:30:10.681Z,6.80
2023-04-16T17:32:40.794Z,7.93
2023-04-16T17:35:11.185Z,7.13
2023-04-16T17:37:39.775Z,7.20
2023-04-16T17:40:10.179Z,7.82
2023-04-16T17:42:39.048Z,8.93
2023-04-16T17:45:09.065Z,8.63
2023-04-16T17:47:37.753Z,7.63
2023-04-16T17:50:09.321Z,8.48
2023-04-16T17:52:38.434Z,9.13
2023-04-16T17:55:08.014Z,7.35
2023-04-16T17:57:36.823Z,7.22
2023-04-16T18:00:10.443Z,7.93
2023-04-16T18:02:46.201Z,7.60
2023-04-16T18:05:16.893Z,9.18
2023-04-16T18:07:47.126Z,7.50
2023-04-16T18:10:16.204Z,6.82
2023-04-16T18:12:45.816Z,7.20
2023-04-16T18:15:15.875Z,7.72
2023-04-16T18:17:44.636Z,7.28
2023-04-16T18:20:16.990Z,7.93
2023-04-16T18:22:47.236Z,7.05
2023-04-16T18:25:16.419Z,7.00
2023-04-16T18:27:45.728Z,7.63
2023-04-16T18:30:22.133Z,7.53
2023-04-16T18:33:19.460Z,6.80
2023-04-16T18:35:43.914Z,7.20
2023-04-16T18:38:14.753Z,6.78
2023-04-16T18:40:43.426Z,7.80
2023-04-16T18:43:13.557Z,8.23
2023-04-16T18:45:42.788Z,7.25
2023-04-16T18:48:11.561Z,7.35
2023-04-16T18:50:40.162Z,6.93
2023-04-16T18:53:08.843Z,6.65
2023-04-16T18:55:38.891Z,7.78
2023-04-16T18:58:07.357Z,7.80
2023-04-16T19:00:35.920Z,7.15
2023-04-16T19:03:07.256Z,7.07
2023-04-16T19:05:36.161Z,7.20
2023-04-16T19:08:04.713Z,8.13
2023-04-16T19:10:33.200Z,8.18
2023-04-16T19:13:03.170Z,8.45
2023-04-16T19:15:33.189Z,8.73
2023-04-16T19:18:03.456Z,9.57
2023-04-16T19:20:34.748Z,23.38
2023-04-16T19:23:05.383Z,14.40
2023-04-16T19:25:34.249Z,10.10
2023-04-16T19:28:04.903Z,8.02
2023-04-16T19:30:33.500Z,8.27
2023-04-16T19:33:02.242Z,8.73
2023-04-16T19:35:31.305Z,8.65
2023-04-16T19:37:59.917Z,8.10
2023-04-16T19:40:28.526Z,8.90
2023-04-16T19:42:57.401Z,9.02
2023-04-16T19:45:27.819Z,8.68
2023-04-16T19:47:56.750Z,9.48
2023-04-16T19:50:25.261Z,9.20
2023-04-16T19:52:53.796Z,8.50
2023-04-16T19:55:23.044Z,7.68
2023-04-16T19:57:51.841Z,8.00
2023-04-16T20:00:21.115Z,7.53
2023-04-16T20:02:51.152Z,7.57
2023-04-16T20:05:19.901Z,7.57
2023-04-16T20:07:48.868Z,7.88
2023-04-16T20:10:18.479Z,7.80
2023-04-16T20:12:48.611Z,7.25
2023-04-16T20:15:17.230Z,7.13
2023-04-16T20:17:47.270Z,7.10
2023-04-16T20:20:17.639Z,7.43
2023-04-16T20:22:46.177Z,7.57
2023-04-16T20:25:19.154Z,7.10
2023-04-16T20:30:16.602Z,7.32
2023-04-16T20:32:45.104Z,7.97
2023-04-16T20:35:13.688Z,8.68
2023-04-16T20:37:43.603Z,8.75
2023-04-16T20:40:14.020Z,9.18
2023-04-16T20:42:46.408Z,8.25
2023-04-16T20:45:14.999Z,7.53
2023-04-16T20:47:44.619Z,7.90
2023-04-16T20:50:13.644Z,8.57
2023-04-16T20:52:43.546Z,7.70
2023-04-16T20:55:12.219Z,7.15
2023-04-16T20:57:40.752Z,8.77
2023-04-16T21:00:11.767Z,9.20
2023-04-16T21:02:40.469Z,8.80
2023-04-16T21:05:13.917Z,10.15
2023-04-16T21:07:44.171Z,9.95
2023-04-16T21:10:17.500Z,9.35
2023-04-16T21:15:14.308Z,7.55
2023-04-16T21:17:44.190Z,7.30
2023-04-16T21:20:14.288Z,7.82
2023-04-16T21:22:44.367Z,8.00
2023-04-16T21:25:12.944Z,7.82
2023-04-16T21:27:41.434Z,8.65
2023-04-16T21:30:11.137Z,8.32
2023-04-16T21:32:39.616Z,8.30
2023-04-16T21:35:08.653Z,8.00
2023-04-16T21:37:37.562Z,7.88
2023-04-16T21:40:08.850Z,7.85
2023-04-16T21:42:40.016Z,8.60
2023-04-16T21:45:09.732Z,7.60
2023-04-16T21:47:38.473Z,8.35
2023-04-16T21:50:08.001Z,8.90
2023-04-16T21:52:40.606Z,7.85
2023-04-16T21:55:11.404Z,8.68
2023-04-16T21:57:39.975Z,8.60
2023-04-16T22:00:13.959Z,8.90
2023-04-16T22:02:43.602Z,7.93
2023-04-16T22:05:12.701Z,7.25
2023-04-16T22:07:41.398Z,8.32
2023-04-16T22:10:15.002Z,7.70
2023-04-16T22:12:44.948Z,7.80
2023-04-16T22:15:14.683Z,7.28
2023-04-16T22:17:43.356Z,8.02
2023-04-16T22:20:13.441Z,7.28
2023-04-16T22:22:42.611Z,7.40
2023-04-16T22:25:12.850Z,6.65
2023-04-16T22:27:41.468Z,6.97
2023-04-16T22:30:10.901Z,7.15
2023-04-16T22:32:39.460Z,6.60
2023-04-16T22:35:08.558Z,6.78
2023-04-16T22:37:37.093Z,7.85
2023-04-16T22:40:08.323Z,8.68
2023-04-16T22:42:38.329Z,7.85
2023-04-16T22:45:08.546Z,7.25
2023-04-16T22:47:37.084Z,7.68
2023-04-16T22:50:06.420Z,6.40
2023-04-16T22:52:34.960Z,6.18
2023-04-16T22:55:03.594Z,5.25
2023-04-16T22:57:32.562Z,5.65
2023-04-16T23:00:02.456Z,5.97
2023-04-16T23:02:32.809Z,6.15
2023-04-16T23:05:01.709Z,6.00
2023-04-16T23:07:32.335Z,6.35
2023-04-16T23:10:00.940Z,6.85
2023-04-16T23:12:29.514Z,6.40
2023-04-16T23:14:58.442Z,8.43
2023-04-16T23:17:28.442Z,6.43
2023-04-16T23:19:57.197Z,7.10
2023-04-16T23:22:25.763Z,7.47
2023-04-16T23:24:54.356Z,6.40
2023-04-16T23:27:22.944Z,6.60
2023-04-16T23:29:51.456Z,6.80
2023-04-16T23:32:19.925Z,7.13
2023-04-16T23:34:49.849Z,6.95
2023-04-16T23:37:18.341Z,7.55
2023-04-16T23:39:46.768Z,7.63
2023-04-16T23:42:15.291Z,7.68
2023-04-16T23:44:43.882Z,7.05
2023-04-16T23:47:12.417Z,7.18
2023-04-16T23:49:41.124Z,7.35
2023-04-16T23:52:11.059Z,7.03
2023-04-16T23:54:39.524Z,7.50
2023-04-16T23:57:07.999Z,8.25
2023-04-16T23:59:36.560Z,7.90
